Time;durP1;ratioP1;P1;durP2;ratioP2;P2;SDS_P1;SDS_P2;PMS_P1;PMS_P2;Temp;Humidity;BMP_temperature;BMP_pressure;BME280_temperature;BME280_humidity;BME280_pressure;Samples;Min_cycle;Max_cycle;Signal;HPM_P1;HPM_P2
2022/04/02 00:00:57;;;;;;;5.97;1.30;;;;;;;2.14;51.65;100380.81;4974007;28;20055;-66
2022/04/02 00:03:28;;;;;;;2.75;1.50;;;;;;;2.18;51.07;100380.06;4973422;28;20051;-66
2022/04/02 00:05:55;;;;;;;3.20;1.23;;;;;;;2.26;50.58;100372.53;4973557;28;20047;-66
2022/04/02 00:08:36;;;;;;;4.15;1.10;;;;;;;2.22;50.38;100371.59;4973985;28;20138;-66
2022/04/02 00:13:48;;;;;;;2.60;0.95;;;;;;;2.17;50.93;100373.22;4974550;28;20061;-66
2022/04/02 00:16:25;;;;;;;3.63;1.35;;;;;;;2.06;52.66;100374.66;4974365;28;20073;-66
2022/04/02 00:18:55;;;;;;;6.07;1.08;;;;;;;2.17;52.78;100380.88;4973778;28;20067;-66
2022/04/02 00:21:23;;;;;;;3.17;0.90;;;;;;;2.15;52.90;100372.31;4962012;28;20061;-66
2022/04/02 00:24:03;;;;;;;2.47;1.10;;;;;;;2.16;54.14;100379.16;4938276;29;20058;-66
2022/04/02 00:26:31;;;;;;;4.70;1.35;;;;;;;2.16;54.48;100362.13;4970048;28;20058;-66
2022/04/02 00:28:59;;;;;;;5.85;1.13;;;;;;;2.02;55.47;100373.75;4974360;28;20054;-66
2022/04/02 00:31:29;;;;;;;5.75;1.33;;;;;;;2.11;55.61;100373.09;4975922;28;20059;-66
2022/04/02 00:33:59;;;;;;;3.35;1.10;;;;;;;2.22;55.02;100376.72;4978123;28;20046;-66
2022/04/02 00:36:28;;;;;;;5.35;1.27;;;;;;;2.18;55.29;100374.94;4978024;28;20055;-66
2022/04/02 00:39:16;;;;;;;3.72;1.20;;;;;;;2.15;56.14;100377.44;4986035;28;20101;-65
2022/04/02 00:41:46;;;;;;;7.03;1.17;;;;;;;2.14;55.83;100373.16;4992010;28;20055;-66
2022/04/02 00:44:26;;;;;;;5.90;1.08;;;;;;;2.14;56.23;100373.16;4981680;28;20038;-66
2022/04/02 00:46:54;;;;;;;5.93;1.38;;;;;;;2.10;56.79;100371.38;4980648;28;20137;-66
2022/04/02 00:49:25;;;;;;;4.05;1.20;;;;;;;2.13;56.04;100358.66;4977490;28;20361;-66
2022/04/02 00:51:53;;;;;;;4.78;1.40;;;;;;;2.02;56.86;100367.78;4977837;28;20051;-66
2022/04/02 00:54:24;;;;;;;2.95;1.20;;;;;;;2.07;57.25;100373.84;4977948;28;20051;-66
2022/04/02 00:56:52;;;;;;;3.83;1.15;;;;;;;2.04;57.28;100371.22;4977409;28;20047;-65
2022/04/02 00:59:22;;;;;;;3.05;1.20;;;;;;;2.20;56.72;100379.25;4977462;28;20055;-66
2022/04/02 01:01:52;;;;;;;7.40;1.10;;;;;;;2.10;57.67;100369.69;4977574;28;20688;-65
2022/04/02 01:04:19;;;;;;;5.03;1.00;;;;;;;2.10;58.00;100363.69;4977328;28;20109;-65
2022/04/02 01:06:49;;;;;;;2.65;0.93;;;;;;;2.05;57.74;100367.81;4977502;28;20090;-65
2022/04/02 01:09:17;;;;;;;3.55;1.40;;;;;;;1.99;58.17;100363.47;4977556;28;20050;-66
2022/04/02 01:11:58;;;;;;;4.13;1.30;;;;;;;2.00;58.17;100369.44;4977329;28;20065;-66
2022/04/02 01:14:26;;;;;;;2.95;1.10;;;;;;;2.19;57.23;100364.75;4976525;28;20050;-65
2022/04/02 01:16:56;;;;;;;3.90;1.40;;;;;;;2.00;58.00;100364.31;4977024;28;20055;-65
2022/04/02 01:19:24;;;;;;;4.43;1.33;;;;;;;1.99;57.98;100357.47;4977269;28;20091;-66
2022/04/02 01:22:13;;;;;;;3.00;1.60;;;;;;;2.00;58.33;100364.31;4972476;28;20069;-66
2022/04/02 01:24:43;;;;;;;5.22;1.15;;;;;;;2.05;58.18;100362.72;4977185;28;20051;-66
2022/04/02 01:27:13;;;;;;;2.50;0.95;;;;;;;2.02;58.29;100362.66;4977292;28;20051;-66
2022/04/02 01:29:40;;;;;;;3.80;1.50;;;;;;;2.05;57.86;100367.81;4977258;28;20137;-66
2022/04/02 01:32:12;;;;;;;3.25;0.98;;;;;;;2.06;57.78;100369.56;4976565;28;20061;-66
2022/04/02 01:34:38;;;;;;;3.08;1.08;;;;;;;2.12;57.02;100365.47;4976674;28;20408;-66
2022/04/02 01:37:26;;;;;;;4.25;1.17;;;;;;;2.06;57.54;100372.09;4977016;28;20255;-66
2022/04/02 01:39:53;;;;;;;5.00;2.05;;;;;;;2.07;57.72;100366.16;4992408;28;20093;-66
2022/04/02 01:42:24;;;;;;;2.63;0.98;;;;;;;2.00;57.67;100369.44;4995266;28;20076;-65
2022/04/02 01:44:54;;;;;;;3.40;1.10;;;;;;;2.12;57.44;100359.47;4986626;28;20051;-65
2022/04/02 01:47:30;;;;;;;2.70;1.10;;;;;;;2.13;57.55;100368.88;4976612;28;20061;-65
2022/04/02 01:50:03;;;;;;;2.35;1.20;;;;;;;2.08;57.87;100373.00;4976650;28;20094;-66
2022/04/02 01:52:40;;;;;;;2.85;1.08;;;;;;;2.09;57.89;100374.75;4975810;28;20138;-65
2022/04/02 01:55:10;;;;;;;2.58;1.10;;;;;;;2.05;57.40;100375.50;4957227;28;20130;-65
2022/04/02 01:57:38;;;;;;;3.83;1.17;;;;;;;2.04;56.86;100376.34;4956594;29;20086;-65
2022/04/02 02:00:14;;;;;;;3.95;1.13;;;;;;;1.95;57.03;100376.16;4957441;28;20051;-65
2022/04/02 02:02:42;;;;;;;4.88;1.05;;;;;;;2.01;56.63;100366.03;4959362;28;20515;-65
2022/04/02 02:05:11;;;;;;;5.45;1.00;;;;;;;1.99;57.40;100372.81;4976296;28;20058;-65
2022/04/02 02:07:41;;;;;;;4.03;1.30;;;;;;;1.94;57.17;100369.31;4976454;28;20053;-65
2022/04/02 02:10:12;;;;;;;4.40;1.08;;;;;;;1.95;57.60;100371.03;4976400;28;20050;-65
2022/04/02 02:12:42;;;;;;;3.03;1.10;;;;;;;1.95;56.93;100376.16;4976156;28;20107;-65
2022/04/02 02:15:17;;;;;;;6.88;1.83;;;;;;;1.86;57.28;100364.91;4976385;28;20141;-65
2022/04/02 02:17:47;;;;;;;2.88;1.15;;;;;;;1.97;57.18;100375.34;4976395;28;20157;-65
2022/04/02 02:20:17;;;;;;;2.13;0.98;;;;;;;1.97;56.62;100366.81;4976321;28;20054;-66
2022/04/02 02:22:50;;;;;;;2.65;1.27;;;;;;;1.98;56.93;100366.84;4975798;28;20058;-65
2022/04/02 02:25:21;;;;;;;3.30;1.25;;;;;;;2.05;56.63;100367.81;4976072;28;20408;-65
2022/04/02 02:27:52;;;;;;;3.22;1.17;;;;;;;2.06;56.14;100364.44;4976220;28;20058;-65
2022/04/02 02:30:22;;;;;;;2.95;1.00;;;;;;;1.97;56.52;100354.91;4975991;28;20058;-65
2022/04/02 02:32:50;;;;;;;5.78;1.10;;;;;;;2.03;56.30;100359.28;4976118;28;20081;-65
2022/04/02 02:35:59;;;;;;;2.22;0.80;;;;;;;1.94;56.92;100354.84;4975481;28;20055;-65
2022/04/02 02:38:41;;;;;;;5.28;1.42;;;;;;;1.95;57.33;100348.91;4980090;28;20050;-65
2022/04/02 02:41:12;;;;;;;4.57;1.10;;;;;;;1.98;56.97;100350.66;4994277;28;20050;-65
2022/04/02 02:43:38;;;;;;;4.57;1.23;;;;;;;1.93;56.27;100352.25;4995232;28;20054;-65
2022/04/02 02:46:07;;;;;;;2.83;1.00;;;;;;;1.98;56.52;100365.97;4976130;28;20121;-65
2022/04/02 02:48:37;;;;;;;2.97;1.00;;;;;;;1.99;55.58;100362.59;4975564;28;20051;-66
2022/04/02 02:51:07;;;;;;;4.57;1.50;;;;;;;2.02;54.91;100360.09;4975942;28;20062;-66
2022/04/02 02:53:36;;;;;;;5.22;0.90;;;;;;;1.96;54.40;100357.44;4984518;28;20058;-66
2022/04/02 02:56:04;;;;;;;6.03;1.30;;;;;;;1.88;54.21;100345.34;4994856;28;20121;-66
2022/04/02 02:58:32;;;;;;;3.25;1.00;;;;;;;2.05;53.69;100358.47;4993641;28;20046;-66
2022/04/02 03:01:00;;;;;;;4.97;1.27;;;;;;;1.98;54.37;100358.31;4994087;28;20391;-65
2022/04/02 03:03:28;;;;;;;3.55;1.20;;;;;;;2.06;54.26;100354.22;4986103;28;20062;-65
2022/04/02 03:05:56;;;;;;;4.82;1.10;;;;;;;1.98;53.67;100358.31;4955822;29;20055;-65
2022/04/02 03:08:24;;;;;;;3.85;1.30;;;;;;;1.90;53.50;100359.03;4964944;28;20055;-65
2022/04/02 03:10:55;;;;;;;3.30;1.45;;;;;;;1.89;53.93;100351.31;4975153;28;20460;-65
2022/04/02 03:13:25;;;;;;;4.40;1.42;;;;;;;1.98;53.62;100359.19;4975058;28;20051;-65
2022/04/02 03:15:55;;;;;;;3.90;1.50;;;;;;;1.97;52.81;100364.25;4975310;28;20138;-65
2022/04/02 03:18:23;;;;;;;3.65;1.17;;;;;;;1.95;52.44;100371.03;4974778;28;20054;-65
2022/04/02 03:20:50;;;;;;;2.75;1.27;;;;;;;1.93;52.74;100372.69;4974383;28;20054;-65
2022/04/02 03:23:19;;;;;;;5.43;0.82;;;;;;;1.85;52.22;100365.75;4974410;28;20491;-65
2022/04/02 03:25:48;;;;;;;3.42;1.55;;;;;;;1.92;51.57;100371.84;4958053;28;20186;-65
2022/04/02 03:28:29;;;;;;;3.00;1.30;;;;;;;1.89;52.14;100372.63;4974153;28;20479;-65
2022/04/02 03:30:56;;;;;;;2.42;1.65;;;;;;;1.99;52.58;100373.69;4974604;28;20061;-65
2022/04/02 03:33:26;;;;;;;5.57;1.20;;;;;;;1.98;52.43;100371.09;4973771;28;20063;-65
2022/04/02 03:35:54;;;;;;;5.47;1.30;;;;;;;2.00;52.51;100366.88;4974583;28;20058;-65
2022/04/02 03:41:02;;;;;;;3.58;1.23;;;;;;;1.97;52.30;100380.47;4988371;28;20058;-65
2022/04/02 03:43:46;;;;;;;2.42;1.10;;;;;;;2.04;51.94;100381.44;4959282;28;20066;-65
2022/04/02 03:48:59;;;;;;;3.28;1.00;;;;;;;1.95;51.51;100378.72;4967949;28;20109;-66
2022/04/02 03:51:26;;;;;;;2.13;0.82;;;;;;;1.82;51.68;100373.34;4963020;28;20050;-65
2022/04/02 03:53:54;;;;;;;4.35;0.98;;;;;;;1.91;51.81;100385.44;4956435;28;20047;-65
2022/04/02 03:56:25;;;;;;;5.45;1.30;;;;;;;1.78;50.92;100384.34;4971146;28;20138;-65
2022/04/02 03:58:54;;;;;;;2.10;0.80;;;;;;;1.80;51.15;100392.91;4974093;28;20070;-65
2022/04/02 04:01:24;;;;;;;5.28;1.13;;;;;;;1.87;51.09;100384.53;4967569;28;20066;-65
2022/04/02 04:03:54;;;;;;;3.78;0.93;;;;;;;1.84;51.34;100389.56;4972226;28;20061;-65
2022/04/02 04:06:24;;;;;;;3.45;0.80;;;;;;;1.96;51.01;100383.00;4973755;28;20376;-65
2022/04/02 04:08:52;;;;;;;5.13;1.00;;;;;;;1.94;50.98;100389.75;4973946;28;20057;-65
2022/04/02 04:11:19;;;;;;;3.80;1.00;;;;;;;1.89;50.67;100382.88;4973913;28;20055;-65
2022/04/02 04:13:47;;;;;;;5.30;0.90;;;;;;;1.90;50.02;100379.47;4974121;28;20460;-65
2022/04/02 04:16:22;;;;;;;1.75;1.00;;;;;;;1.89;49.09;100393.09;4974081;28;20053;-68
2022/04/02 04:18:52;;;;;;;4.65;0.90;;;;;;;1.98;49.32;100394.97;4974707;28;20150;-67
2022/04/02 04:21:24;;;;;;;3.80;1.02;;;;;;;1.89;49.17;100392.22;4974698;28;20117;-66
2022/04/02 04:23:55;;;;;;;4.47;1.23;;;;;;;1.96;49.21;100394.06;4968529;28;20061;-66
2022/04/02 04:26:25;;;;;;;5.43;0.98;;;;;;;1.93;49.44;100388.03;4967201;28;20070;-66
2022/04/02 04:28:52;;;;;;;3.38;0.90;;;;;;;2.01;49.46;100389.06;4971132;28;20112;-66
2022/04/02 04:31:34;;;;;;;5.35;1.65;;;;;;;1.98;49.78;100402.63;4956811;28;20066;-66
2022/04/02 04:34:04;;;;;;;3.35;1.02;;;;;;;2.01;50.02;100396.72;4969375;28;20058;-66
2022/04/02 04:36:31;;;;;;;6.28;0.90;;;;;;;1.96;49.24;100393.22;4974170;28;20058;-66
2022/04/02 04:38:59;;;;;;;3.97;1.02;;;;;;;1.99;49.47;100403.50;4961816;28;20059;-65
2022/04/02 04:41:27;;;;;;;5.03;1.00;;;;;;;1.93;49.87;100403.38;4964368;28;20055;-65
2022/04/02 04:43:55;;;;;;;3.83;1.15;;;;;;;2.03;49.94;100407.84;4961098;28;20059;-65
2022/04/02 04:46:30;;;;;;;3.25;1.00;;;;;;;1.99;49.78;100398.38;4963342;28;20388;-65
2022/04/02 04:48:58;;;;;;;4.43;1.15;;;;;;;1.97;49.62;100415.38;4955166;29;20146;-65
2022/04/02 04:51:28;;;;;;;4.03;1.30;;;;;;;2.06;49.80;100410.47;4955176;28;20066;-65
2022/04/02 04:53:55;;;;;;;4.85;1.00;;;;;;;2.06;50.77;100407.91;4954647;29;20404;-65
2022/04/02 04:56:33;;;;;;;1.85;0.75;;;;;;;2.08;50.55;100424.13;4973434;28;20051;-66
2022/04/02 04:59:03;;;;;;;3.55;1.45;;;;;;;2.28;50.45;100420.31;4964440;28;20055;-66
2022/04/02 05:01:32;;;;;;;5.78;1.02;;;;;;;2.34;50.09;100428.13;4964045;28;20089;-66
2022/04/02 05:04:00;;;;;;;4.72;1.08;;;;;;;2.32;49.77;100427.22;4968506;28;20058;-66
2022/04/02 05:06:32;;;;;;;5.10;1.20;;;;;;;2.30;50.62;100425.47;4973489;28;20046;-66
2022/04/02 05:09:03;;;;;;;9.00;1.20;;;;;;;2.35;50.71;100434.09;4965692;28;20055;-66
2022/04/02 05:11:39;;;;;;;6.90;1.40;;;;;;;2.42;49.88;100431.69;4967736;28;20065;-66
2022/04/02 05:14:09;;;;;;;2.72;0.80;;;;;;;2.41;49.65;100422.28;4973905;28;20142;-66
2022/04/02 05:16:39;;;;;;;2.97;1.05;;;;;;;2.45;49.53;100430.88;4974519;28;20049;-65
2022/04/02 05:19:15;;;;;;;7.22;1.05;;;;;;;2.57;49.92;100420.00;4977385;28;20055;-65
2022/04/02 05:21:46;;;;;;;4.97;1.02;;;;;;;2.62;50.40;100447.44;4977531;28;20061;-65
2022/04/02 05:24:17;;;;;;;3.67;1.65;;;;;;;2.71;50.57;100428.84;4975744;28;20063;-65
2022/04/02 05:26:47;;;;;;;4.20;1.40;;;;;;;2.87;50.95;100440.22;4973448;28;20058;-63
2022/04/02 05:29:17;;;;;;;3.60;1.33;;;;;;;2.82;50.98;100447.81;4976131;28;20058;-65
2022/04/02 05:31:49;;;;;;;9.07;1.60;;;;;;;3.06;50.22;100443.13;4976123;28;20050;-65
2022/04/02 05:34:20;;;;;;;4.35;1.40;;;;;;;3.13;50.29;100450.09;4975093;28;20506;-65
2022/04/02 05:36:47;;;;;;;3.47;1.00;;;;;;;3.18;49.82;100442.50;4975246;28;20048;-65
2022/04/02 05:39:17;;;;;;;3.97;1.08;;;;;;;3.19;50.38;100443.34;4985822;28;20459;-65
2022/04/02 05:41:54;;;;;;;4.22;1.25;;;;;;;3.31;50.43;100448.66;4993561;28;20116;-65
2022/04/02 05:44:24;;;;;;;8.25;2.75;;;;;;;3.33;49.52;100477.75;4991185;28;20106;-65
2022/04/02 05:46:56;;;;;;;2.17;1.05;;;;;;;3.32;48.56;100442.72;4977488;28;20061;-65
2022/04/02 05:49:24;;;;;;;7.85;1.35;;;;;;;3.43;46.78;100451.44;4976879;28;20428;-65
2022/04/02 05:51:53;;;;;;;4.45;1.08;;;;;;;3.53;47.92;100437.91;4976871;28;20055;-65
2022/04/02 05:54:19;;;;;;;2.35;0.98;;;;;;;3.61;49.06;100454.28;4976873;28;20061;-65
2022/04/02 05:56:49;;;;;;;7.65;1.30;;;;;;;3.80;49.92;100456.28;4976213;28;20572;-65
2022/04/02 05:59:19;;;;;;;9.13;1.20;;;;;;;3.97;49.20;100463.34;4976865;28;20141;-65
2022/04/02 06:01:47;;;;;;;3.17;1.40;;;;;;;4.13;49.16;100475.53;4976952;28;20050;-65
2022/04/02 06:04:29;;;;;;;9.93;1.40;;;;;;;4.23;49.99;100467.16;4975782;28;20054;-65
2022/04/02 06:06:57;;;;;;;6.43;1.20;;;;;;;4.26;49.78;100477.47;4976939;28;20046;-65
2022/04/02 06:12:17;;;;;;;4.13;1.50;;;;;;;4.35;49.85;100469.88;4977327;28;20062;-64
2022/04/02 06:14:47;;;;;;;4.93;1.38;;;;;;;4.32;49.30;100492.94;4976356;28;20058;-65
2022/04/02 06:17:14;;;;;;;5.68;1.70;;;;;;;4.36;48.78;100468.16;4976230;28;20061;-65
2022/04/02 06:19:57;;;;;;;4.70;1.40;;;;;;;4.40;48.41;100478.50;4975849;28;20047;-64
2022/04/02 06:22:27;;;;;;;4.15;1.08;;;;;;;4.40;48.82;100481.06;4976391;28;20054;-65
2022/04/02 06:24:57;;;;;;;6.45;1.52;;;;;;;4.50;47.99;100483.72;4976240;28;20058;-65
2022/04/02 06:27:27;;;;;;;7.40;1.27;;;;;;;4.58;47.82;100489.81;4976883;28;20105;-64
2022/04/02 06:30:04;;;;;;;2.90;1.40;;;;;;;4.69;47.91;100493.41;4976315;28;20051;-64
2022/04/02 06:32:31;;;;;;;6.70;1.45;;;;;;;4.76;47.90;100505.47;4976591;28;20173;-64
2022/04/02 06:35:07;;;;;;;3.40;1.20;;;;;;;4.89;46.99;100485.91;4966129;28;20381;-65
2022/04/02 06:37:36;;;;;;;7.30;1.42;;;;;;;4.95;47.20;100488.53;4957172;28;20062;-65
2022/04/02 06:40:09;;;;;;;3.75;1.00;;;;;;;5.12;47.19;100491.28;4991285;28;20054;-65
2022/04/02 06:42:44;;;;;;;4.40;0.90;;;;;;;4.95;46.68;100491.97;4995037;28;20415;-65
2022/04/02 06:45:11;;;;;;;9.30;1.30;;;;;;;5.07;45.74;100492.09;4983557;28;20755;-65
2022/04/02 06:47:42;;;;;;;3.08;1.05;;;;;;;5.13;45.83;100498.13;4976120;28;20054;-65
2022/04/02 06:50:23;;;;;;;2.55;0.90;;;;;;;5.24;44.70;100499.13;4976043;28;20129;-65
2022/04/02 06:52:53;;;;;;;3.40;0.98;;;;;;;5.27;44.57;100509.44;4976069;28;20060;-65
2022/04/02 06:55:21;;;;;;;2.50;1.20;;;;;;;5.17;45.20;100517.88;4975577;28;20059;-65
2022/04/02 06:57:55;;;;;;;7.22;1.45;;;;;;;5.31;44.83;100503.47;4975618;28;20361;-65
2022/04/02 07:00:25;;;;;;;6.40;1.17;;;;;;;5.27;43.06;100504.28;4975625;28;20164;-65
2022/04/02 07:02:53;;;;;;;5.20;1.08;;;;;;;5.20;43.85;100508.53;4975381;28;20536;-65
2022/04/02 07:05:30;;;;;;;6.22;1.15;;;;;;;5.31;42.14;100506.03;4975259;28;20486;-65
2022/04/02 07:07:57;;;;;;;3.55;1.30;;;;;;;5.56;43.50;100513.13;4975887;28;20055;-65
2022/04/02 07:10:27;;;;;;;6.15;1.27;;;;;;;5.61;43.05;100521.72;4975624;28;20047;-65
2022/04/02 07:12:57;;;;;;;4.47;1.25;;;;;;;5.86;42.33;100512.53;4975109;28;20066;-65
2022/04/02 07:15:25;;;;;;;4.88;1.20;;;;;;;6.01;41.20;100498.91;4975080;28;20535;-65
2022/04/02 07:17:53;;;;;;;4.30;1.67;;;;;;;6.13;42.00;100523.88;4975212;28;20432;-65
2022/04/02 07:20:30;;;;;;;9.93;1.38;;;;;;;6.36;41.31;100508.56;4975164;28;20054;-65
2022/04/02 07:22:59;;;;;;;4.10;1.25;;;;;;;6.61;40.79;100510.41;4975376;28;20073;-65
2022/04/02 07:25:29;;;;;;;18.40;1.88;;;;;;;6.57;40.76;100509.53;4975225;28;20047;-65
2022/04/02 07:28:07;;;;;;;6.80;1.15;;;;;;;6.49;39.70;100530.94;4975126;28;20059;-65
2022/04/02 07:30:43;;;;;;;11.35;1.30;;;;;;;6.50;40.30;100523.25;4976775;28;20066;-65
2022/04/02 07:33:11;;;;;;;7.78;1.20;;;;;;;6.61;40.02;100531.88;4991060;28;20057;-65
2022/04/02 07:36:01;;;;;;;6.50;1.30;;;;;;;6.60;39.70;100529.28;4975578;28;20058;-65
2022/04/02 07:38:39;;;;;;;7.60;1.58;;;;;;;6.43;39.49;100520.63;4983418;28;20101;-65
2022/04/02 07:41:18;;;;;;;5.85;1.25;;;;;;;6.12;38.44;100546.16;4974046;28;20066;-65
2022/04/02 07:43:56;;;;;;;8.27;1.77;;;;;;;6.11;39.08;100512.69;4974987;28;20479;-65
2022/04/02 07:46:30;;;;;;;2.45;0.93;;;;;;;6.17;39.92;100543.63;4981796;28;20058;-65
2022/04/02 07:49:06;;;;;;;4.82;1.23;;;;;;;6.06;39.00;100535.84;4975800;28;20691;-64
2022/04/02 07:51:41;;;;;;;2.88;1.02;;;;;;;5.77;38.91;100511.59;4975417;28;20069;-65
2022/04/02 07:54:17;;;;;;;5.70;1.30;;;;;;;5.87;38.79;100545.09;4974972;28;20054;-65
2022/04/02 07:56:52;;;;;;;4.38;1.13;;;;;;;5.87;38.04;100557.09;4974889;28;20043;-65
2022/04/02 07:59:27;;;;;;;4.25;0.90;;;;;;;5.90;38.35;100549.44;4975020;28;20069;-65
2022/04/02 08:02:36;;;;;;;2.63;1.00;;;;;;;5.94;35.68;100557.19;4974873;28;20105;-65
2022/04/02 08:05:03;;;;;;;9.23;1.63;;;;;;;5.85;37.33;100535.66;4965963;28;20142;-65
2022/04/02 08:07:35;;;;;;;4.65;1.35;;;;;;;5.88;38.49;100561.41;4974603;28;20061;-65
2022/04/02 08:10:10;;;;;;;9.82;1.35;;;;;;;6.11;38.59;100559.88;4974737;28;20061;-65
2022/04/02 08:12:47;;;;;;;4.00;1.03;;;;;;;6.23;37.79;100559.97;4973008;28;20151;-65
2022/04/02 08:15:24;;;;;;;4.68;1.05;;;;;;;6.16;37.89;100547.91;4975068;28;20065;-65
2022/04/02 08:18:01;;;;;;;3.92;1.00;;;;;;;6.48;37.80;100561.00;4974817;28;20050;-65
2022/04/02 08:20:28;;;;;;;1.98;0.85;;;;;;;6.73;37.16;100551.66;4974371;28;20458;-65
2022/04/02 08:23:05;;;;;;;2.95;0.93;;;;;;;6.69;37.58;100564.53;4974618;28;20055;-65
2022/04/02 08:25:36;;;;;;;4.90;1.33;;;;;;;6.67;37.87;100561.94;4974530;28;20051;-65
2022/04/02 08:28:12;;;;;;;6.50;1.00;;;;;;;6.82;37.50;100559.47;4974618;28;20089;-65
2022/04/02 08:30:48;;;;;;;2.63;1.10;;;;;;;6.93;37.06;100570.66;4974392;28;20491;-65
2022/04/02 08:33:32;;;;;;;4.53;0.93;;;;;;;7.17;37.54;100581.91;4974767;28;20065;-65
2022/04/02 08:36:11;;;;;;;3.22;1.08;;;;;;;7.40;37.33;100546.75;4974066;28;20792;-65
2022/04/02 08:38:57;;;;;;;4.22;1.30;;;;;;;7.63;36.67;100579.44;4980484;28;20050;-65
2022/04/02 08:42:29;;;;;;;7.03;1.50;;;;;;;7.76;36.90;100576.88;4993264;28;20070;-65
2022/04/02 08:45:13;;;;;;;1.85;0.80;;;;;;;7.91;36.29;100574.31;4984071;28;20082;-65
2022/04/02 08:48:29;;;;;;;4.07;1.38;;;;;;;8.06;34.95;100581.19;4974429;28;20057;-65
2022/04/02 08:51:21;;;;;;;7.55;2.30;;;;;;;8.30;35.11;100592.34;4895753;29;20052;-65
2022/04/02 08:54:04;;;;;;;17.15;4.00;;;;;;;8.16;34.40;100576.88;4969938;28;20142;-65
2022/04/02 08:56:38;;;;;;;5.22;0.90;;;;;;;8.11;34.84;100579.47;4977751;28;20463;-65
2022/04/02 08:59:11;;;;;;;3.05;1.10;;;;;;;8.06;34.37;100577.75;4977003;28;20051;-65
2022/04/02 09:01:46;;;;;;;5.85;0.98;;;;;;;7.69;34.66;100584.59;4977925;28;20399;-64
2022/04/02 09:04:58;;;;;;;13.55;1.42;;;;;;;7.54;35.56;100575.13;4978032;28;20113;-61
2022/04/02 09:08:09;;;;;;;3.80;1.00;;;;;;;7.51;34.98;100581.16;4918053;29;20059;-61
2022/04/02 09:10:54;;;;;;;5.00;1.30;;;;;;;7.33;36.19;100596.59;4899381;29;20084;-61
2022/04/02 09:13:56;;;;;;;5.82;1.05;;;;;;;7.61;36.42;100582.00;4976985;28;20836;-61
2022/04/02 09:16:38;;;;;;;8.85;1.70;;;;;;;7.78;36.59;100584.59;4974381;28;20086;-61
2022/04/02 09:19:24;;;;;;;4.72;1.80;;;;;;;8.00;35.65;100586.34;4977478;28;20550;-61
2022/04/02 09:22:08;;;;;;;6.90;1.60;;;;;;;8.24;35.25;100588.91;4977712;28;20088;-61
2022/04/02 09:25:13;;;;;;;2.58;1.10;;;;;;;8.23;34.54;100587.19;4975228;28;20085;-61
2022/04/02 09:28:23;;;;;;;6.65;1.48;;;;;;;8.40;34.30;100586.34;4973147;28;20051;-61
2022/04/02 09:31:30;;;;;;;6.55;1.40;;;;;;;8.08;33.96;100576.03;4977027;28;20067;-62
2022/04/02 09:34:32;;;;;;;3.67;1.33;;;;;;;8.03;33.83;100573.44;4977155;28;20054;-61
2022/04/02 09:37:11;;;;;;;5.68;1.30;;;;;;;8.28;33.49;100581.16;4898582;29;20052;-60
2022/04/02 09:39:53;;;;;;;5.35;1.55;;;;;;;8.51;33.06;100579.44;4912371;29;20087;-60
2022/04/02 09:42:53;;;;;;;10.43;2.38;;;;;;;8.58;33.68;100565.63;4979348;28;20066;-60
2022/04/02 09:45:48;;;;;;;6.57;1.60;;;;;;;8.57;33.19;100583.72;4981890;28;20057;-61
2022/04/02 09:48:20;;;;;;;7.38;2.60;;;;;;;8.67;33.90;100575.94;4975866;28;20062;-63
2022/04/02 09:50:50;;;;;;;5.32;2.20;;;;;;;8.82;33.00;100573.31;4976160;28;20055;-64
2022/04/02 09:53:25;;;;;;;18.73;1.70;;;;;;;8.79;32.75;100562.97;4975774;28;20158;-64
2022/04/02 09:56:12;;;;;;;8.43;2.05;;;;;;;8.94;33.05;100581.91;4976066;28;20051;-65
2022/04/02 09:59:25;;;;;;;4.65;1.33;;;;;;;8.69;33.25;100586.28;4976027;28;20074;-63
2022/04/02 10:02:07;;;;;;;6.03;1.50;;;;;;;8.62;33.86;100572.53;4974392;28;20507;-64
2022/04/02 10:04:41;;;;;;;4.60;1.48;;;;;;;8.79;33.45;100564.69;4980675;28;20078;-64
2022/04/02 10:07:20;;;;;;;5.25;0.90;;;;;;;8.66;32.98;100569.06;4975751;28;20125;-65
2022/04/02 10:09:50;;;;;;;2.95;1.50;;;;;;;8.56;33.29;100582.88;4956427;29;20063;-64
2022/04/02 10:12:19;;;;;;;4.30;1.85;;;;;;;8.06;32.61;100570.84;4965748;28;20071;-64
2022/04/02 10:14:51;;;;;;;5.82;2.03;;;;;;;8.13;33.63;100577.72;4971106;28;20078;-64
2022/04/02 10:17:28;;;;;;;10.90;1.55;;;;;;;8.21;33.68;100586.34;4975356;28;20058;-64
2022/04/02 10:20:05;;;;;;;7.47;2.13;;;;;;;8.32;32.90;100572.53;4965478;28;20047;-64
2022/04/02 10:22:46;;;;;;;7.22;2.97;;;;;;;8.61;33.63;100581.13;4955334;29;20066;-64
2022/04/02 10:25:23;;;;;;;9.07;1.20;;;;;;;8.71;33.20;100572.50;4956111;29;20475;-62
2022/04/02 10:27:50;;;;;;;7.43;1.90;;;;;;;8.78;33.33;100574.19;4952807;29;20051;-62
2022/04/02 10:30:20;;;;;;;6.82;2.05;;;;;;;8.69;33.64;100563.88;4940956;28;20057;-64
2022/04/02 10:32:57;;;;;;;7.25;1.52;;;;;;;8.26;33.28;100580.28;4981549;28;20166;-62
2022/04/02 10:35:35;;;;;;;6.97;1.40;;;;;;;8.25;33.63;100574.28;4956792;28;20054;-62
2022/04/02 10:38:19;;;;;;;3.65;1.50;;;;;;;8.28;34.09;100569.09;4975469;28;20239;-63
2022/04/02 10:40:53;;;;;;;9.15;1.60;;;;;;;8.22;34.18;100595.78;4839417;28;4095206;-63
2022/04/02 10:43:28;;;;;;;5.75;2.10;;;;;;;8.46;34.38;100570.84;4959478;28;20172;-63
2022/04/02 10:45:56;;;;;;;3.17;1.10;;;;;;;8.05;34.65;100576.88;4989774;28;20129;-63
2022/04/02 10:48:38;;;;;;;3.17;1.40;;;;;;;7.82;34.52;100576.03;4976993;28;20051;-63
2022/04/02 10:51:08;;;;;;;3.47;1.65;;;;;;;7.84;34.88;100582.06;4989080;28;20140;-63
2022/04/02 10:53:44;;;;;;;7.43;1.65;;;;;;;8.03;34.64;100583.78;4979917;28;20372;-63
2022/04/02 10:56:19;;;;;;;4.90;1.80;;;;;;;8.17;35.29;100588.91;4984713;28;20051;-63
2022/04/02 10:58:54;;;;;;;4.55;1.35;;;;;;;8.13;34.92;100598.38;4989877;28;20094;-63
2022/04/02 11:01:31;;;;;;;5.55;1.55;;;;;;;7.72;35.48;100592.34;4976658;28;20050;-63
2022/04/02 11:04:19;;;;;;;5.93;1.30;;;;;;;7.90;35.61;100600.97;4967563;28;20468;-63
2022/04/02 11:06:57;;;;;;;5.22;1.30;;;;;;;7.93;34.67;100589.78;4974665;28;20069;-63
2022/04/02 11:09:29;;;;;;;12.43;1.45;;;;;;;7.94;33.90;100591.53;4972703;28;20051;-63
2022/04/02 11:12:02;;;;;;;5.40;1.60;;;;;;;8.00;33.77;100568.28;4967578;28;20472;-63
2022/04/02 11:14:38;;;;;;;3.63;1.40;;;;;;;7.74;34.21;100582.88;4976430;28;20134;-63
2022/04/02 11:17:09;;;;;;;8.52;1.85;;;;;;;7.83;34.37;100594.09;4976213;28;20053;-63
2022/04/02 11:19:57;;;;;;;9.18;1.40;;;;;;;7.77;34.08;100588.03;4971173;28;20490;-63
2022/04/02 11:22:30;;;;;;;6.15;1.95;;;;;;;7.54;34.13;100575.13;4976427;28;20055;-63
2022/04/02 11:25:06;;;;;;;11.35;2.28;;;;;;;7.01;33.86;100593.88;4956146;28;20058;-63
2022/04/02 11:27:49;;;;;;;7.45;1.60;;;;;;;7.17;35.12;100594.78;4974766;28;20046;-63
2022/04/02 11:30:19;;;;;;;51.78;4.30;;;;;;;7.03;35.48;100591.31;4980919;28;20051;-63
2022/04/02 11:32:56;;;;;;;7.93;1.48;;;;;;;7.12;36.09;100599.94;4988189;28;20054;-63
2022/04/02 11:35:28;;;;;;;8.45;1.58;;;;;;;7.35;35.21;100594.88;4974930;28;20137;-63
2022/04/02 11:38:09;;;;;;;5.65;1.30;;;;;;;7.33;35.15;100596.59;4988168;28;20054;-63
2022/04/02 11:40:43;;;;;;;2.75;1.13;;;;;;;7.28;35.47;100598.25;4974416;28;20133;-63
2022/04/02 11:43:14;;;;;;;4.40;1.52;;;;;;;7.39;35.19;100595.75;4974929;28;20145;-63
2022/04/02 11:45:44;;;;;;;10.13;1.63;;;;;;;7.60;34.62;100590.63;4982378;28;20050;-63
2022/04/02 11:48:12;;;;;;;5.88;1.38;;;;;;;7.55;33.85;100577.72;4973655;28;20046;-63
2022/04/02 11:50:47;;;;;;;4.13;1.50;;;;;;;6.96;33.91;100600.75;4971726;28;20057;-63
2022/04/02 11:53:15;;;;;;;8.20;1.27;;;;;;;7.27;34.57;100592.25;4973447;28;20058;-63
2022/04/02 11:55:46;;;;;;;4.28;1.50;;;;;;;7.51;34.58;100591.47;4973800;28;20066;-63
2022/04/02 11:58:22;;;;;;;4.30;1.50;;;;;;;7.45;34.07;100600.91;4973772;28;20082;-63
2022/04/02 12:00:59;;;;;;;3.15;1.40;;;;;;;7.26;33.97;100605.13;4973997;28;20543;-63
2022/04/02 12:03:28;;;;;;;3.63;1.40;;;;;;;7.06;34.67;100617.09;4974360;28;20468;-62
2022/04/02 12:06:11;;;;;;;7.07;1.42;;;;;;;6.84;33.84;100575.78;4974849;28;20054;-62
2022/04/02 12:08:49;;;;;;;3.33;1.50;;;;;;;6.90;33.83;100596.41;4974776;28;20050;-62
2022/04/02 12:11:24;;;;;;;3.47;1.50;;;;;;;7.10;34.30;100598.22;4974765;28;20089;-62
2022/04/02 12:13:55;;;;;;;5.82;1.60;;;;;;;7.00;34.47;100599.03;4974731;28;20065;-62
2022/04/02 12:16:22;;;;;;;6.13;1.92;;;;;;;7.12;34.43;100599.06;4972516;28;20563;-62
2022/04/02 12:18:55;;;;;;;4.63;1.60;;;;;;;7.23;33.96;100610.28;4974055;28;20061;-62